sensor_id;sensor_type;location;lat;lon;timestamp;P1;durP1;ratioP1;P2;durP2;ratioP2
59766;SDS011;46248;58.364;25.582;2023-04-25T00:03:18;7.18;;;5.05;;
59766;SDS011;46248;58.364;25.582;2023-04-25T00:06:41;7.07;;;4.95;;
59766;SDS011;46248;58.364;25.582;2023-04-25T00:10:03;6.65;;;5.28;;
59766;SDS011;46248;58.364;25.582;2023-04-25T00:13:28;7.82;;;4.60;;
59766;SDS011;46248;58.364;25.582;2023-04-25T00:16:50;7.68;;;4.53;;
59766;SDS011;46248;58.364;25.582;2023-04-25T00:20:13;9.65;;;5.07;;
59766;SDS011;46248;58.364;25.582;2023-04-25T00:23:36;5.60;;;4.88;;
59766;SDS011;46248;58.364;25.582;2023-04-25T00:26:59;8.02;;;5.60;;
59766;SDS011;46248;58.364;25.582;2023-04-25T00:30:22;9.32;;;5.57;;
59766;SDS011;46248;58.364;25.582;2023-04-25T00:33:44;6.03;;;4.93;;
59766;SDS011;46248;58.364;25.582;2023-04-25T00:37:07;5.97;;;5.32;;
59766;SDS011;46248;58.364;25.582;2023-04-25T00:40:29;5.78;;;4.18;;
59766;SDS011;46248;58.364;25.582;2023-04-25T00:43:51;8.82;;;4.90;;
59766;SDS011;46248;58.364;25.582;2023-04-25T00:47:17;7.65;;;4.80;;
59766;SDS011;46248;58.364;25.582;2023-04-25T00:50:39;6.47;;;4.40;;
59766;SDS011;46248;58.364;25.582;2023-04-25T00:54:02;5.47;;;4.60;;
59766;SDS011;46248;58.364;25.582;2023-04-25T00:57:24;6.82;;;5.30;;
59766;SDS011;46248;58.364;25.582;2023-04-25T01:00:47;7.68;;;4.93;;
59766;SDS011;46248;58.364;25.582;2023-04-25T01:04:12;7.70;;;5.30;;
59766;SDS011;46248;58.364;25.582;2023-04-25T01:07:35;8.25;;;5.07;;
59766;SDS011;46248;58.364;25.582;2023-04-25T01:10:57;6.43;;;4.95;;
59766;SDS011;46248;58.364;25.582;2023-04-25T01:14:19;10.20;;;4.82;;
59766;SDS011;46248;58.364;25.582;2023-04-25T01:17:40;8.20;;;5.00;;
59766;SDS011;46248;58.364;25.582;2023-04-25T01:21:08;7.57;;;5.30;;
59766;SDS011;46248;58.364;25.582;2023-04-25T01:24:30;7.57;;;4.50;;
59766;SDS011;46248;58.364;25.582;2023-04-25T01:27:54;8.95;;;5.20;;
59766;SDS011;46248;58.364;25.582;2023-04-25T01:31:17;6.30;;;5.03;;
59766;SDS011;46248;58.364;25.582;2023-04-25T01:34:40;9.70;;;5.72;;
59766;SDS011;46248;58.364;25.582;2023-04-25T01:38:03;7.95;;;4.88;;
59766;SDS011;46248;58.364;25.582;2023-04-25T01:41:25;7.60;;;4.55;;
59766;SDS011;46248;58.364;25.582;2023-04-25T01:44:48;8.57;;;4.95;;
59766;SDS011;46248;58.364;25.582;2023-04-25T01:48:10;6.72;;;4.53;;
59766;SDS011;46248;58.364;25.582;2023-04-25T01:51:33;10.75;;;5.05;;
59766;SDS011;46248;58.364;25.582;2023-04-25T01:54:57;7.10;;;4.40;;
59766;SDS011;46248;58.364;25.582;2023-04-25T01:58:20;7.13;;;4.20;;
59766;SDS011;46248;58.364;25.582;2023-04-25T02:01:42;4.88;;;3.63;;
59766;SDS011;46248;58.364;25.582;2023-04-25T02:05:04;8.80;;;4.28;;
59766;SDS011;46248;58.364;25.582;2023-04-25T02:08:26;8.40;;;4.32;;
59766;SDS011;46248;58.364;25.582;2023-04-25T02:11:49;6.15;;;5.07;;
59766;SDS011;46248;58.364;25.582;2023-04-25T02:15:11;6.00;;;4.72;;
59766;SDS011;46248;58.364;25.582;2023-04-25T02:18:33;6.35;;;3.92;;
59766;SDS011;46248;58.364;25.582;2023-04-25T02:21:56;5.88;;;4.32;;
59766;SDS011;46248;58.364;25.582;2023-04-25T02:25:18;6.88;;;4.68;;
59766;SDS011;46248;58.364;25.582;2023-04-25T02:28:42;6.20;;;4.05;;
59766;SDS011;46248;58.364;25.582;2023-04-25T02:32:04;5.88;;;3.72;;
59766;SDS011;46248;58.364;25.582;2023-04-25T02:35:27;4.20;;;3.38;;
59766;SDS011;46248;58.364;25.582;2023-04-25T02:38:49;4.40;;;3.63;;
59766;SDS011;46248;58.364;25.582;2023-04-25T02:42:12;7.07;;;3.90;;
59766;SDS011;46248;58.364;25.582;2023-04-25T02:45:35;5.75;;;3.70;;
59766;SDS011;46248;58.364;25.582;2023-04-25T02:48:57;5.13;;;3.47;;
59766;SDS011;46248;58.364;25.582;2023-04-25T02:52:19;3.70;;;3.30;;
59766;SDS011;46248;58.364;25.582;2023-04-25T02:55:41;5.95;;;3.63;;
59766;SDS011;46248;58.364;25.582;2023-04-25T02:59:03;3.80;;;3.45;;
59766;SDS011;46248;58.364;25.582;2023-04-25T03:02:26;6.15;;;3.35;;
59766;SDS011;46248;58.364;25.582;2023-04-25T03:05:48;5.32;;;3.45;;
59766;SDS011;46248;58.364;25.582;2023-04-25T03:09:10;6.03;;;3.28;;
59766;SDS011;46248;58.364;25.582;2023-04-25T03:12:32;5.13;;;3.58;;
59766;SDS011;46248;58.364;25.582;2023-04-25T03:15:54;6.15;;;3.13;;
59766;SDS011;46248;58.364;25.582;2023-04-25T03:19:18;5.43;;;3.67;;
59766;SDS011;46248;58.364;25.582;2023-04-25T03:22:40;5.80;;;3.25;;
59766;SDS011;46248;58.364;25.582;2023-04-25T03:26:02;6.18;;;3.30;;
59766;SDS011;46248;58.364;25.582;2023-04-25T03:29:24;5.53;;;3.28;;
59766;SDS011;46248;58.364;25.582;2023-04-25T03:32:47;5.63;;;3.88;;
59766;SDS011;46248;58.364;25.582;2023-04-25T03:36:11;3.13;;;2.80;;
59766;SDS011;46248;58.364;25.582;2023-04-25T03:39:33;4.13;;;2.80;;
59766;SDS011;46248;58.364;25.582;2023-04-25T03:42:55;4.80;;;2.90;;
59766;SDS011;46248;58.364;25.582;2023-04-25T03:46:16;5.32;;;3.10;;
59766;SDS011;46248;58.364;25.582;2023-04-25T03:49:38;6.15;;;3.35;;
59766;SDS011;46248;58.364;25.582;2023-04-25T03:53:01;4.70;;;3.13;;
59766;SDS011;46248;58.364;25.582;2023-04-25T03:56:23;4.55;;;3.47;;
59766;SDS011;46248;58.364;25.582;2023-04-25T03:59:45;5.55;;;2.95;;
59766;SDS011;46248;58.364;25.582;2023-04-25T04:03:07;6.05;;;3.47;;
59766;SDS011;46248;58.364;25.582;2023-04-25T04:06:29;6.43;;;3.50;;
59766;SDS011;46248;58.364;25.582;2023-04-25T04:09:53;4.68;;;2.65;;
59766;SDS011;46248;58.364;25.582;2023-04-25T04:13:15;4.68;;;3.00;;
59766;SDS011;46248;58.364;25.582;2023-04-25T04:16:38;3.25;;;2.60;;
59766;SDS011;46248;58.364;25.582;2023-04-25T04:20:00;3.45;;;2.90;;
59766;SDS011;46248;58.364;25.582;2023-04-25T04:23:22;3.25;;;2.95;;
59766;SDS011;46248;58.364;25.582;2023-04-25T04:26:46;4.68;;;2.50;;
59766;SDS011;46248;58.364;25.582;2023-04-25T04:30:08;3.35;;;2.50;;
59766;SDS011;46248;58.364;25.582;2023-04-25T04:33:30;4.45;;;2.67;;
59766;SDS011;46248;58.364;25.582;2023-04-25T04:36:52;4.22;;;2.47;;
59766;SDS011;46248;58.364;25.582;2023-04-25T04:40:14;3.85;;;2.90;;
59766;SDS011;46248;58.364;25.582;2023-04-25T04:43:38;2.83;;;2.40;;
59766;SDS011;46248;58.364;25.582;2023-04-25T04:47:00;3.70;;;2.30;;
59766;SDS011;46248;58.364;25.582;2023-04-25T04:50:23;3.85;;;2.60;;
59766;SDS011;46248;58.364;25.582;2023-04-25T04:53:46;4.18;;;2.22;;
59766;SDS011;46248;58.364;25.582;2023-04-25T04:57:09;5.63;;;2.78;;
59766;SDS011;46248;58.364;25.582;2023-04-25T05:00:32;4.13;;;2.20;;
59766;SDS011;46248;58.364;25.582;2023-04-25T05:03:54;5.93;;;2.70;;
59766;SDS011;46248;58.364;25.582;2023-04-25T05:07:20;4.53;;;2.55;;
59766;SDS011;46248;58.364;25.582;2023-04-25T05:10:42;5.97;;;2.90;;
59766;SDS011;46248;58.364;25.582;2023-04-25T05:14:04;4.85;;;2.60;;
59766;SDS011;46248;58.364;25.582;2023-04-25T05:17:27;6.10;;;2.85;;
59766;SDS011;46248;58.364;25.582;2023-04-25T05:20:49;3.78;;;2.28;;
59766;SDS011;46248;58.364;25.582;2023-04-25T05:24:11;6.18;;;2.78;;
59766;SDS011;46248;58.364;25.582;2023-04-25T05:27:33;3.55;;;2.38;;
59766;SDS011;46248;58.364;25.582;2023-04-25T05:30:54;4.07;;;2.22;;
59766;SDS011;46248;58.364;25.582;2023-04-25T05:34:18;3.90;;;2.28;;
59766;SDS011;46248;58.364;25.582;2023-04-25T05:37:40;4.57;;;2.42;;
59766;SDS011;46248;58.364;25.582;2023-04-25T05:41:03;5.38;;;2.33;;
59766;SDS011;46248;58.364;25.582;2023-04-25T05:44:24;5.10;;;2.70;;
59766;SDS011;46248;58.364;25.582;2023-04-25T05:47:46;4.68;;;3.05;;
59766;SDS011;46248;58.364;25.582;2023-04-25T05:51:10;4.97;;;2.63;;
59766;SDS011;46248;58.364;25.582;2023-04-25T05:54:32;4.13;;;2.30;;
59766;SDS011;46248;58.364;25.582;2023-04-25T05:57:54;4.85;;;2.47;;
59766;SDS011;46248;58.364;25.582;2023-04-25T06:01:15;5.65;;;2.80;;
59766;SDS011;46248;58.364;25.582;2023-04-25T06:04:37;2.97;;;2.20;;
59766;SDS011;46248;58.364;25.582;2023-04-25T06:08:01;4.28;;;2.40;;
59766;SDS011;46248;58.364;25.582;2023-04-25T06:11:23;6.32;;;2.55;;
59766;SDS011;46248;58.364;25.582;2023-04-25T06:14:44;4.03;;;2.75;;
59766;SDS011;46248;58.364;25.582;2023-04-25T06:18:06;4.10;;;2.50;;
59766;SDS011;46248;58.364;25.582;2023-04-25T06:21:29;3.22;;;2.38;;
59766;SDS011;46248;58.364;25.582;2023-04-25T06:24:52;4.93;;;2.60;;
59766;SDS011;46248;58.364;25.582;2023-04-25T06:28:17;4.90;;;2.90;;
59766;SDS011;46248;58.364;25.582;2023-04-25T06:31:42;4.47;;;2.67;;
59766;SDS011;46248;58.364;25.582;2023-04-25T06:35:05;3.70;;;2.63;;
59766;SDS011;46248;58.364;25.582;2023-04-25T06:38:27;4.75;;;2.60;;
59766;SDS011;46248;58.364;25.582;2023-04-25T06:41:51;4.53;;;2.47;;
59766;SDS011;46248;58.364;25.582;2023-04-25T06:45:13;5.53;;;2.80;;
59766;SDS011;46248;58.364;25.582;2023-04-25T06:48:35;3.63;;;3.17;;
59766;SDS011;46248;58.364;25.582;2023-04-25T06:51:57;5.82;;;3.17;;
59766;SDS011;46248;58.364;25.582;2023-04-25T06:55:19;7.07;;;3.63;;
59766;SDS011;46248;58.364;25.582;2023-04-25T06:58:42;5.28;;;3.08;;
59766;SDS011;46248;58.364;25.582;2023-04-25T07:02:05;4.95;;;3.22;;
59766;SDS011;46248;58.364;25.582;2023-04-25T07:05:27;4.32;;;3.00;;
59766;SDS011;46248;58.364;25.582;2023-04-25T07:08:49;5.22;;;2.55;;
59766;SDS011;46248;58.364;25.582;2023-04-25T07:12:12;4.55;;;2.90;;
59766;SDS011;46248;58.364;25.582;2023-04-25T07:15:35;3.85;;;2.38;;
59766;SDS011;46248;58.364;25.582;2023-04-25T07:18:57;4.75;;;2.42;;
59766;SDS011;46248;58.364;25.582;2023-04-25T07:22:21;5.45;;;2.42;;
59766;SDS011;46248;58.364;25.582;2023-04-25T07:25:43;5.72;;;2.63;;
59766;SDS011;46248;58.364;25.582;2023-04-25T07:29:05;2.60;;;2.22;;
59766;SDS011;46248;58.364;25.582;2023-04-25T07:32:28;4.57;;;2.60;;
59766;SDS011;46248;58.364;25.582;2023-04-25T07:35:51;3.33;;;2.80;;
59766;SDS011;46248;58.364;25.582;2023-04-25T07:39:14;4.05;;;2.80;;
59766;SDS011;46248;58.364;25.582;2023-04-25T07:42:36;5.63;;;2.92;;
59766;SDS011;46248;58.364;25.582;2023-04-25T07:45:58;4.45;;;2.40;;
59766;SDS011;46248;58.364;25.582;2023-04-25T07:49:22;7.18;;;3.05;;
59766;SDS011;46248;58.364;25.582;2023-04-25T07:52:44;6.50;;;3.03;;
59766;SDS011;46248;58.364;25.582;2023-04-25T07:56:06;3.90;;;2.53;;
59766;SDS011;46248;58.364;25.582;2023-04-25T07:59:29;3.72;;;2.90;;
59766;SDS011;46248;58.364;25.582;2023-04-25T08:02:51;5.25;;;2.80;;
59766;SDS011;46248;58.364;25.582;2023-04-25T08:06:15;5.35;;;2.55;;
59766;SDS011;46248;58.364;25.582;2023-04-25T08:09:37;4.18;;;2.42;;
59766;SDS011;46248;58.364;25.582;2023-04-25T08:12:59;4.75;;;2.58;;
59766;SDS011;46248;58.364;25.582;2023-04-25T08:16:21;4.50;;;2.67;;
59766;SDS011;46248;58.364;25.582;2023-04-25T08:19:43;3.08;;;2.63;;
59766;SDS011;46248;58.364;25.582;2023-04-25T08:23:06;4.10;;;2.50;;
59766;SDS011;46248;58.364;25.582;2023-04-25T08:26:29;6.85;;;2.85;;
59766;SDS011;46248;58.364;25.582;2023-04-25T08:30:14;3.13;;;2.22;;
59766;SDS011;46248;58.364;25.582;2023-04-25T08:33:36;5.10;;;2.80;;
59766;SDS011;46248;58.364;25.582;2023-04-25T08:36:58;4.25;;;2.70;;
59766;SDS011;46248;58.364;25.582;2023-04-25T08:44:57;3.10;;;2.70;;
59766;SDS011;46248;58.364;25.582;2023-04-25T08:48:26;6.65;;;2.60;;
59766;SDS011;46248;58.364;25.582;2023-04-25T08:51:49;4.53;;;2.90;;
59766;SDS011;46248;58.364;25.582;2023-04-25T08:55:13;5.45;;;2.72;;
59766;SDS011;46248;58.364;25.582;2023-04-25T08:58:36;2.97;;;2.63;;
59766;SDS011;46248;58.364;25.582;2023-04-25T09:02:01;4.85;;;2.60;;
59766;SDS011;46248;58.364;25.582;2023-04-25T09:05:23;4.43;;;2.50;;
59766;SDS011;46248;58.364;25.582;2023-04-25T09:08:45;4.50;;;2.20;;
59766;SDS011;46248;58.364;25.582;2023-04-25T09:12:07;4.82;;;2.80;;
59766;SDS011;46248;58.364;25.582;2023-04-25T09:15:29;3.45;;;2.53;;
59766;SDS011;46248;58.364;25.582;2023-04-25T09:18:52;4.15;;;2.72;;
59766;SDS011;46248;58.364;25.582;2023-04-25T09:22:15;7.15;;;3.08;;
59766;SDS011;46248;58.364;25.582;2023-04-25T09:25:41;8.45;;;2.55;;
59766;SDS011;46248;58.364;25.582;2023-04-25T09:29:04;12.55;;;3.22;;
59766;SDS011;46248;58.364;25.582;2023-04-25T09:32:26;4.72;;;2.15;;
59766;SDS011;46248;58.364;25.582;2023-04-25T09:35:50;3.53;;;2.40;;
59766;SDS011;46248;58.364;25.582;2023-04-25T09:39:15;4.53;;;2.83;;
59766;SDS011;46248;58.364;25.582;2023-04-25T09:42:40;4.65;;;2.25;;
59766;SDS011;46248;58.364;25.582;2023-04-25T09:46:04;3.30;;;2.35;;
59766;SDS011;46248;58.364;25.582;2023-04-25T09:49:29;2.85;;;2.03;;
59766;SDS011;46248;58.364;25.582;2023-04-25T09:53:03;5.03;;;2.28;;
59766;SDS011;46248;58.364;25.582;2023-04-25T09:56:26;4.65;;;2.63;;
59766;SDS011;46248;58.364;25.582;2023-04-25T09:59:54;2.85;;;2.35;;
59766;SDS011;46248;58.364;25.582;2023-04-25T10:03:17;7.45;;;3.08;;
59766;SDS011;46248;58.364;25.582;2023-04-25T10:06:42;3.03;;;2.55;;
59766;SDS011;46248;58.364;25.582;2023-04-25T10:10:08;3.58;;;2.20;;
59766;SDS011;46248;58.364;25.582;2023-04-25T10:13:34;3.53;;;2.65;;
59766;SDS011;46248;58.364;25.582;2023-04-25T10:16:58;4.05;;;2.53;;
59766;SDS011;46248;58.364;25.582;2023-04-25T10:20:20;2.78;;;2.50;;
59766;SDS011;46248;58.364;25.582;2023-04-25T10:23:43;5.10;;;2.80;;
59766;SDS011;46248;58.364;25.582;2023-04-25T10:27:07;4.78;;;2.65;;
59766;SDS011;46248;58.364;25.582;2023-04-25T10:30:29;3.78;;;2.33;;
59766;SDS011;46248;58.364;25.582;2023-04-25T10:33:51;4.60;;;2.38;;
59766;SDS011;46248;58.364;25.582;2023-04-25T10:37:14;4.80;;;2.28;;
59766;SDS011;46248;58.364;25.582;2023-04-25T10:40:36;5.30;;;2.08;;
59766;SDS011;46248;58.364;25.582;2023-04-25T10:44:00;3.13;;;2.58;;
59766;SDS011;46248;58.364;25.582;2023-04-25T10:47:24;2.88;;;2.58;;
59766;SDS011;46248;58.364;25.582;2023-04-25T10:51:08;4.13;;;2.30;;
59766;SDS011;46248;58.364;25.582;2023-04-25T10:54:30;5.10;;;2.15;;
59766;SDS011;46248;58.364;25.582;2023-04-25T10:57:53;5.00;;;2.65;;
59766;SDS011;46248;58.364;25.582;2023-04-25T11:01:20;6.60;;;2.92;;
59766;SDS011;46248;58.364;25.582;2023-04-25T11:04:43;6.78;;;2.50;;
59766;SDS011;46248;58.364;25.582;2023-04-25T11:08:09;3.35;;;2.40;;
59766;SDS011;46248;58.364;25.582;2023-04-25T11:11:36;4.03;;;2.10;;
59766;SDS011;46248;58.364;25.582;2023-04-25T11:14:58;4.65;;;2.05;;
59766;SDS011;46248;58.364;25.582;2023-04-25T11:18:25;2.72;;;2.10;;
59766;SDS011;46248;58.364;25.582;2023-04-25T11:21:47;5.47;;;2.60;;
59766;SDS011;46248;58.364;25.582;2023-04-25T11:25:10;5.25;;;1.92;;
59766;SDS011;46248;58.364;25.582;2023-04-25T11:28:33;2.97;;;1.60;;
59766;SDS011;46248;58.364;25.582;2023-04-25T11:31:55;4.95;;;1.95;;
59766;SDS011;46248;58.364;25.582;2023-04-25T11:35:19;4.63;;;1.95;;
59766;SDS011;46248;58.364;25.582;2023-04-25T11:38:43;3.83;;;2.00;;
59766;SDS011;46248;58.364;25.582;2023-04-25T11:42:05;5.10;;;1.95;;
59766;SDS011;46248;58.364;25.582;2023-04-25T11:45:32;1.98;;;1.58;;
59766;SDS011;46248;58.364;25.582;2023-04-25T11:48:54;3.47;;;1.98;;
59766;SDS011;46248;58.364;25.582;2023-04-25T11:52:18;3.05;;;2.08;;
59766;SDS011;46248;58.364;25.582;2023-04-25T11:55:40;2.90;;;2.00;;
59766;SDS011;46248;58.364;25.582;2023-04-25T11:59:03;2.92;;;2.15;;
59766;SDS011;46248;58.364;25.582;2023-04-25T12:02:27;2.10;;;1.90;;
59766;SDS011;46248;58.364;25.582;2023-04-25T12:05:49;2.90;;;1.92;;
59766;SDS011;46248;58.364;25.582;2023-04-25T12:09:14;3.28;;;1.70;;
59766;SDS011;46248;58.364;25.582;2023-04-25T12:12:38;2.70;;;2.00;;
59766;SDS011;46248;58.364;25.582;2023-04-25T12:16:03;2.33;;;1.70;;
59766;SDS011;46248;58.364;25.582;2023-04-25T12:19:26;9.40;;;2.28;;
59766;SDS011;46248;58.364;25.582;2023-04-25T12:22:52;3.10;;;2.22;;
59766;SDS011;46248;58.364;25.582;2023-04-25T12:26:17;5.50;;;2.10;;
59766;SDS011;46248;58.364;25.582;2023-04-25T12:29:49;5.82;;;2.63;;
59766;SDS011;46248;58.364;25.582;2023-04-25T12:33:12;2.90;;;2.20;;
59766;SDS011;46248;58.364;25.582;2023-04-25T12:36:34;2.33;;;1.85;;
59766;SDS011;46248;58.364;25.582;2023-04-25T12:39:56;4.28;;;1.90;;
59766;SDS011;46248;58.364;25.582;2023-04-25T12:43:19;2.45;;;1.98;;
59766;SDS011;46248;58.364;25.582;2023-04-25T12:46:41;2.83;;;2.15;;
59766;SDS011;46248;58.364;25.582;2023-04-25T12:50:03;3.55;;;2.20;;
59766;SDS011;46248;58.364;25.582;2023-04-25T12:53:26;9.45;;;2.53;;
59766;SDS011;46248;58.364;25.582;2023-04-25T12:56:47;17.45;;;7.97;;
59766;SDS011;46248;58.364;25.582;2023-04-25T13:00:12;5.65;;;2.80;;
59766;SDS011;46248;58.364;25.582;2023-04-25T13:03:38;2.03;;;1.85;;
59766;SDS011;46248;58.364;25.582;2023-04-25T13:07:00;5.57;;;2.88;;
59766;SDS011;46248;58.364;25.582;2023-04-25T13:10:23;3.30;;;2.83;;
59766;SDS011;46248;58.364;25.582;2023-04-25T13:13:45;4.40;;;3.92;;
59766;SDS011;46248;58.364;25.582;2023-04-25T13:17:08;7.40;;;3.70;;
59766;SDS011;46248;58.364;25.582;2023-04-25T13:20:30;5.55;;;3.10;;
59766;SDS011;46248;58.364;25.582;2023-04-25T13:23:52;3.13;;;2.83;;
59766;SDS011;46248;58.364;25.582;2023-04-25T13:27:14;4.57;;;2.47;;
59766;SDS011;46248;58.364;25.582;2023-04-25T13:30:36;3.05;;;2.55;;
59766;SDS011;46248;58.364;25.582;2023-04-25T13:34:00;5.90;;;2.88;;
59766;SDS011;46248;58.364;25.582;2023-04-25T13:37:22;3.60;;;1.70;;
59766;SDS011;46248;58.364;25.582;2023-04-25T13:40:44;4.70;;;2.50;;
59766;SDS011;46248;58.364;25.582;2023-04-25T13:44:06;4.65;;;2.55;;
59766;SDS011;46248;58.364;25.582;2023-04-25T13:47:27;3.05;;;1.90;;
59766;SDS011;46248;58.364;25.582;2023-04-25T13:50:51;3.80;;;2.15;;
59766;SDS011;46248;58.364;25.582;2023-04-25T13:54:13;3.25;;;2.08;;
59766;SDS011;46248;58.364;25.582;2023-04-25T13:57:34;2.95;;;2.00;;
59766;SDS011;46248;58.364;25.582;2023-04-25T14:01:00;10.15;;;2.50;;
59766;SDS011;46248;58.364;25.582;2023-04-25T14:04:22;3.50;;;2.30;;
59766;SDS011;46248;58.364;25.582;2023-04-25T14:07:45;8.02;;;2.53;;
59766;SDS011;46248;58.364;25.582;2023-04-25T14:11:07;5.82;;;2.47;;
59766;SDS011;46248;58.364;25.582;2023-04-25T14:14:29;3.65;;;2.30;;
59766;SDS011;46248;58.364;25.582;2023-04-25T14:17:51;3.35;;;2.35;;
59766;SDS011;46248;58.364;25.582;2023-04-25T14:21:14;3.92;;;1.88;;
59766;SDS011;46248;58.364;25.582;2023-04-25T14:24:37;4.65;;;2.60;;
59766;SDS011;46248;58.364;25.582;2023-04-25T14:27:59;1.88;;;1.70;;
59766;SDS011;46248;58.364;25.582;2023-04-25T14:31:21;3.72;;;2.28;;
59766;SDS011;46248;58.364;25.582;2023-04-25T14:34:43;3.28;;;1.80;;
59766;SDS011;46248;58.364;25.582;2023-04-25T14:38:05;3.58;;;2.10;;
59766;SDS011;46248;58.364;25.582;2023-04-25T14:41:29;4.20;;;2.28;;
59766;SDS011;46248;58.364;25.582;2023-04-25T14:44:50;6.93;;;1.98;;
59766;SDS011;46248;58.364;25.582;2023-04-25T14:48:12;3.65;;;1.90;;
59766;SDS011;46248;58.364;25.582;2023-04-25T14:51:34;4.03;;;1.80;;
59766;SDS011;46248;58.364;25.582;2023-04-25T14:54:56;8.00;;;2.60;;
59766;SDS011;46248;58.364;25.582;2023-04-25T14:58:21;2.85;;;2.15;;
59766;SDS011;46248;58.364;25.582;2023-04-25T15:01:43;3.78;;;2.22;;
59766;SDS011;46248;58.364;25.582;2023-04-25T15:05:06;4.35;;;2.22;;
59766;SDS011;46248;58.364;25.582;2023-04-25T15:08:28;6.70;;;2.40;;
59766;SDS011;46248;58.364;25.582;2023-04-25T15:11:50;2.47;;;2.10;;
59766;SDS011;46248;58.364;25.582;2023-04-25T15:15:14;3.38;;;2.08;;
59766;SDS011;46248;58.364;25.582;2023-04-25T15:18:45;4.15;;;1.88;;
59766;SDS011;46248;58.364;25.582;2023-04-25T15:22:06;2.90;;;2.17;;
59766;SDS011;46248;58.364;25.582;2023-04-25T15:25:28;3.80;;;1.98;;
59766;SDS011;46248;58.364;25.582;2023-04-25T15:28:50;2.83;;;2.00;;
59766;SDS011;46248;58.364;25.582;2023-04-25T15:32:14;2.28;;;2.08;;
59766;SDS011;46248;58.364;25.582;2023-04-25T15:35:36;4.88;;;1.80;;
59766;SDS011;46248;58.364;25.582;2023-04-25T15:38:58;4.35;;;1.75;;
59766;SDS011;46248;58.364;25.582;2023-04-25T15:42:20;3.17;;;2.00;;
59766;SDS011;46248;58.364;25.582;2023-04-25T15:45:42;4.72;;;2.15;;
59766;SDS011;46248;58.364;25.582;2023-04-25T15:49:06;8.60;;;2.70;;
59766;SDS011;46248;58.364;25.582;2023-04-25T15:52:28;4.65;;;2.47;;
59766;SDS011;46248;58.364;25.582;2023-04-25T15:55:50;4.05;;;2.30;;
59766;SDS011;46248;58.364;25.582;2023-04-25T15:59:12;3.80;;;2.03;;
59766;SDS011;46248;58.364;25.582;2023-04-25T16:02:34;5.57;;;2.05;;
59766;SDS011;46248;58.364;25.582;2023-04-25T16:05:57;2.60;;;1.88;;
59766;SDS011;46248;58.364;25.582;2023-04-25T16:09:20;5.25;;;2.53;;
59766;SDS011;46248;58.364;25.582;2023-04-25T16:12:42;7.72;;;2.70;;
59766;SDS011;46248;58.364;25.582;2023-04-25T16:16:04;4.70;;;1.90;;
59766;SDS011;46248;58.364;25.582;2023-04-25T16:19:26;5.03;;;2.45;;
59766;SDS011;46248;58.364;25.582;2023-04-25T16:22:49;3.20;;;2.50;;
59766;SDS011;46248;58.364;25.582;2023-04-25T16:26:11;3.13;;;2.50;;
59766;SDS011;46248;58.364;25.582;2023-04-25T16:29:33;3.13;;;2.20;;
59766;SDS011;46248;58.364;25.582;2023-04-25T16:32:55;1.98;;;1.77;;
59766;SDS011;46248;58.364;25.582;2023-04-25T16:36:17;3.25;;;2.17;;
59766;SDS011;46248;58.364;25.582;2023-04-25T16:39:40;3.90;;;2.22;;
59766;SDS011;46248;58.364;25.582;2023-04-25T16:43:02;2.45;;;1.77;;
59766;SDS011;46248;58.364;25.582;2023-04-25T16:46:24;2.33;;;1.55;;
59766;SDS011;46248;58.364;25.582;2023-04-25T16:49:46;3.83;;;1.80;;
59766;SDS011;46248;58.364;25.582;2023-04-25T16:53:08;1.80;;;1.60;;
59766;SDS011;46248;58.364;25.582;2023-04-25T16:56:32;4.10;;;1.95;;
59766;SDS011;46248;58.364;25.582;2023-04-25T16:59:54;2.88;;;1.92;;
59766;SDS011;46248;58.364;25.582;2023-04-25T17:03:15;4.07;;;1.88;;
59766;SDS011;46248;58.364;25.582;2023-04-25T17:06:37;3.38;;;2.05;;
59766;SDS011;46248;58.364;25.582;2023-04-25T17:09:59;3.65;;;1.77;;
59766;SDS011;46248;58.364;25.582;2023-04-25T17:13:22;3.33;;;1.90;;
59766;SDS011;46248;58.364;25.582;2023-04-25T17:16:50;2.05;;;1.80;;
59766;SDS011;46248;58.364;25.582;2023-04-25T17:20:12;2.08;;;1.98;;
59766;SDS011;46248;58.364;25.582;2023-04-25T17:23:34;4.40;;;2.22;;
59766;SDS011;46248;58.364;25.582;2023-04-25T17:26:56;2.17;;;1.73;;
59766;SDS011;46248;58.364;25.582;2023-04-25T17:30:19;2.80;;;2.03;;
59766;SDS011;46248;58.364;25.582;2023-04-25T17:33:42;2.50;;;1.88;;
59766;SDS011;46248;58.364;25.582;2023-04-25T17:37:04;3.95;;;1.85;;
59766;SDS011;46248;58.364;25.582;2023-04-25T17:40:27;2.78;;;2.05;;
59766;SDS011;46248;58.364;25.582;2023-04-25T17:43:49;1.98;;;1.80;;
59766;SDS011;46248;58.364;25.582;2023-04-25T17:47:12;1.65;;;1.52;;
59766;SDS011;46248;58.364;25.582;2023-04-25T17:50:34;4.30;;;1.73;;
59766;SDS011;46248;58.364;25.582;2023-04-25T17:53:56;3.35;;;1.92;;
59766;SDS011;46248;58.364;25.582;2023-04-25T17:57:18;4.20;;;2.05;;
59766;SDS011;46248;58.364;25.582;2023-04-25T18:00:42;3.78;;;1.73;;
59766;SDS011;46248;58.364;25.582;2023-04-25T18:04:05;3.08;;;2.42;;
59766;SDS011;46248;58.364;25.582;2023-04-25T18:07:31;4.85;;;1.92;;
59766;SDS011;46248;58.364;25.582;2023-04-25T18:10:53;5.05;;;1.90;;
59766;SDS011;46248;58.364;25.582;2023-04-25T18:14:16;5.07;;;2.35;;
59766;SDS011;46248;58.364;25.582;2023-04-25T18:17:39;3.72;;;1.98;;
59766;SDS011;46248;58.364;25.582;2023-04-25T18:21:02;3.47;;;2.00;;
59766;SDS011;46248;58.364;25.582;2023-04-25T18:24:27;3.95;;;2.15;;
59766;SDS011;46248;58.364;25.582;2023-04-25T18:27:48;3.80;;;2.15;;
59766;SDS011;46248;58.364;25.582;2023-04-25T18:31:13;6.82;;;2.85;;
59766;SDS011;46248;58.364;25.582;2023-04-25T18:34:36;7.15;;;2.20;;
59766;SDS011;46248;58.364;25.582;2023-04-25T18:38:01;5.15;;;2.78;;
59766;SDS011;46248;58.364;25.582;2023-04-25T18:41:24;3.53;;;2.28;;
59766;SDS011;46248;58.364;25.582;2023-04-25T18:45:07;3.50;;;2.03;;
59766;SDS011;46248;58.364;25.582;2023-04-25T18:48:30;4.88;;;2.17;;
59766;SDS011;46248;58.364;25.582;2023-04-25T18:51:52;2.95;;;2.00;;
59766;SDS011;46248;58.364;25.582;2023-04-25T18:55:18;4.43;;;2.00;;
59766;SDS011;46248;58.364;25.582;2023-04-25T18:58:40;3.45;;;2.13;;
59766;SDS011;46248;58.364;25.582;2023-04-25T19:02:02;4.60;;;2.33;;
59766;SDS011;46248;58.364;25.582;2023-04-25T19:05:25;4.20;;;2.03;;
59766;SDS011;46248;58.364;25.582;2023-04-25T19:08:47;4.05;;;1.98;;
59766;SDS011;46248;58.364;25.582;2023-04-25T19:12:11;4.55;;;2.25;;
59766;SDS011;46248;58.364;25.582;2023-04-25T19:15:33;8.57;;;2.55;;
59766;SDS011;46248;58.364;25.582;2023-04-25T19:18:55;3.92;;;2.28;;
59766;SDS011;46248;58.364;25.582;2023-04-25T19:22:17;4.88;;;2.20;;
59766;SDS011;46248;58.364;25.582;2023-04-25T19:30:22;4.35;;;2.22;;
59766;SDS011;46248;58.364;25.582;2023-04-25T19:33:44;2.17;;;1.80;;
59766;SDS011;46248;58.364;25.582;2023-04-25T19:37:06;3.22;;;2.17;;
59766;SDS011;46248;58.364;25.582;2023-04-25T19:40:28;2.88;;;2.13;;
59766;SDS011;46248;58.364;25.582;2023-04-25T19:43:50;2.58;;;1.80;;
59766;SDS011;46248;58.364;25.582;2023-04-25T19:47:14;3.45;;;2.55;;
59766;SDS011;46248;58.364;25.582;2023-04-25T19:50:35;4.95;;;2.30;;
59766;SDS011;46248;58.364;25.582;2023-04-25T19:53:57;3.13;;;2.20;;
59766;SDS011;46248;58.364;25.582;2023-04-25T19:57:19;2.75;;;2.20;;
59766;SDS011;46248;58.364;25.582;2023-04-25T20:05:30;3.42;;;1.92;;
59766;SDS011;46248;58.364;25.582;2023-04-25T20:08:54;3.50;;;2.17;;
59766;SDS011;46248;58.364;25.582;2023-04-25T20:12:16;2.88;;;2.10;;
59766;SDS011;46248;58.364;25.582;2023-04-25T20:15:38;4.10;;;2.22;;
59766;SDS011;46248;58.364;25.582;2023-04-25T20:19:00;4.18;;;2.38;;